Time,TemperatureF,DewpointF,PressureIn,WindDirection,WindDirectionDegrees,WindSpeedMPH,WindSpeedGustMPH,Humidity,HourlyPrecipIn,Conditions,Clouds,dailyrainin,SoftwareType,DateUTC
2013-10-13 00:00:00,47.0,39.8,30.21,WNW,292,0.0,0.0,76,0.00,,,-99.99,Weather View 32 v60,2013-10-13 05:00:00,
2013-10-13 00:30:00,47.0,39.8,30.22,WNW,292,0.0,0.0,76,0.00,,,-99.99,Weather View 32 v60,2013-10-13 05:30:00,
2013-10-13 01:00:00,47.0,39.5,30.23,NW,315,0.0,0.0,75,0.00,,,-99.99,Weather View 32 v60,2013-10-13 06:00:00,
2013-10-13 01:30:00,47.0,39.8,30.23,NW,315,0.0,0.0,76,0.00,,,-99.99,Weather View 32 v60,2013-10-13 06:30:00,
2013-10-13 02:00:00,45.0,38.5,30.24,NW,315,0.0,0.0,78,0.00,,,-99.99,Weather View 32 v60,2013-10-13 07:00:00,
2013-10-13 02:30:00,45.0,39.2,30.25,North,0,0.0,0.0,80,0.00,,,-99.99,Weather View 32 v60,2013-10-13 07:30:00,
2013-10-13 03:00:00,45.0,39.2,30.26,North,0,0.0,0.0,80,0.00,,,-99.99,Weather View 32 v60,2013-10-13 08:00:00,
2013-10-13 03:30:00,45.0,40.1,30.28,North,0,0.0,0.0,83,0.00,,,-99.99,Weather View 32 v60,2013-10-13 08:30:00,
2013-10-13 04:00:00,44.0,39.5,30.29,NNW,338,0.0,0.0,84,0.00,,,-99.99,Weather View 32 v60,2013-10-13 09:00:00,
2013-10-13 04:30:00,44.0,40.1,30.31,WNW,292,0.0,0.0,86,0.00,,,-99.99,Weather View 32 v60,2013-10-13 09:30:00,
2013-10-13 05:00:00,43.0,39.7,30.33,West,270,0.0,0.0,88,0.00,,,-99.99,Weather View 32 v60,2013-10-13 10:00:00,
2013-10-13 05:30:00,42.0,39.0,30.34,West,270,0.0,0.0,89,0.00,,,-99.99,Weather View 32 v60,2013-10-13 10:30:00,
2013-10-13 06:00:00,41.0,38.3,30.35,West,270,0.0,0.0,90,0.00,,,-99.99,Weather View 32 v60,2013-10-13 11:00:00,
2013-10-13 06:30:00,39.0,36.9,30.36,WNW,292,0.0,0.0,92,0.00,,,-99.99,Weather View 32 v60,2013-10-13 11:30:00,
2013-10-13 07:00:00,39.0,37.7,30.38,WNW,292,0.0,0.0,95,0.00,,,-99.99,Weather View 32 v60,2013-10-13 12:00:00,
2013-10-13 07:30:00,40.0,39.0,30.39,WNW,292,0.0,0.0,96,0.00,,,-99.99,Weather View 32 v60,2013-10-13 12:30:00,
2013-10-13 08:00:00,42.0,42.0,30.41,West,270,0.0,0.0,100,0.00,,,-99.99,Weather View 32 v60,2013-10-13 13:00:00,
2013-10-13 08:30:00,44.0,43.2,30.42,West,270,0.0,0.0,97,0.00,,,-99.99,Weather View 32 v60,2013-10-13 13:30:00,
2013-10-13 09:00:00,49.0,47.1,30.43,North,0,0.0,0.0,93,0.00,,,-99.99,Weather View 32 v60,2013-10-13 14:00:00,
2013-10-13 09:30:00,51.0,47.0,30.44,NE,45,0.0,1.0,86,0.00,,,-99.99,Weather View 32 v60,2013-10-13 14:30:00,
2013-10-13 10:00:00,53.0,45.6,30.44,NNE,22,0.0,3.0,76,0.00,,,-99.99,Weather View 32 v60,2013-10-13 15:00:00,
2013-10-13 10:30:00,54.0,42.1,30.44,NNE,22,0.0,10.0,64,0.00,,,-99.99,Weather View 32 v60,2013-10-13 15:30:00,
2013-10-13 11:00:00,55.0,41.8,30.44,North,0,0.0,10.0,61,0.00,,,-99.99,Weather View 32 v60,2013-10-13 16:00:00,
2013-10-13 11:30:00,56.0,41.4,30.44,NNE,22,0.0,3.0,58,0.00,,,-99.99,Weather View 32 v60,2013-10-13 16:30:00,
2013-10-13 12:00:00,57.0,41.4,30.44,North,0,0.0,10.0,56,0.00,,,-99.99,Weather View 32 v60,2013-10-13 17:00:00,
2013-10-13 12:30:00,57.0,39.5,30.43,NE,45,0.0,11.0,52,0.00,,,-99.99,Weather View 32 v60,2013-10-13 17:30:00,
2013-10-13 13:00:00,58.0,40.4,30.42,NNE,22,0.0,11.0,52,0.00,,,-99.99,Weather View 32 v60,2013-10-13 18:00:00,
2013-10-13 13:30:00,60.0,41.8,30.42,NE,45,0.0,8.0,51,0.00,,,-99.99,Weather View 32 v60,2013-10-13 18:30:00,
2013-10-13 14:00:00,58.0,38.9,30.41,NE,45,0.0,8.0,49,0.00,,,-99.99,Weather View 32 v60,2013-10-13 19:00:00,
2013-10-13 14:30:00,59.0,39.8,30.40,ENE,68,0.0,7.0,49,0.00,,,-99.99,Weather View 32 v60,2013-10-13 19:30:00,
2013-10-13 15:00:00,60.0,39.1,30.40,North,0,0.0,5.0,46,0.00,,,-99.99,Weather View 32 v60,2013-10-13 20:00:00,
2013-10-13 15:30:00,61.0,40.0,30.39,NNE,22,0.0,1.0,46,0.00,,,-99.99,Weather View 32 v60,2013-10-13 20:30:00,
2013-10-13 16:00:00,60.0,38.5,30.39,ESE,112,0.0,1.0,45,0.00,,,-99.99,Weather View 32 v60,2013-10-13 21:00:00,
2013-10-13 16:30:00,60.0,38.5,30.40,North,0,0.0,1.0,45,0.00,,,-99.99,Weather View 32 v60,2013-10-13 21:30:00,
2013-10-13 17:00:00,59.0,38.2,30.40,ENE,68,0.0,0.0,46,0.00,,,-99.99,Weather View 32 v60,2013-10-13 22:00:00,
2013-10-13 17:30:00,57.0,38.5,30.41,NNE,22,0.0,0.0,50,0.00,,,-99.99,Weather View 32 v60,2013-10-13 22:30:00,
2013-10-13 18:00:00,54.0,38.2,30.41,ENE,68,0.0,0.0,55,0.00,,,-99.99,Weather View 32 v60,2013-10-13 23:00:00,
2013-10-13 18:30:00,50.0,37.9,30.42,NW,315,0.0,0.0,63,0.00,,,-99.99,Weather View 32 v60,2013-10-13 23:30:00,
2013-10-13 19:00:00,48.0,39.0,30.43,ENE,68,0.0,0.0,71,0.00,,,-99.99,Weather View 32 v60,2013-10-14 00:00:00,
2013-10-13 19:30:00,46.0,39.5,30.43,NE,45,0.0,0.0,78,0.00,,,-99.99,Weather View 32 v60,2013-10-14 00:30:00,
2013-10-13 20:00:00,44.0,38.9,30.44,ENE,68,0.0,0.0,82,0.00,,,-99.99,Weather View 32 v60,2013-10-14 01:00:00,
2013-10-13 20:30:00,43.0,39.1,30.44,NE,45,0.0,0.0,86,0.00,,,-99.99,Weather View 32 v60,2013-10-14 01:30:00,
2013-10-13 21:00:00,42.0,38.7,30.45,ENE,68,0.0,0.0,88,0.00,,,-99.99,Weather View 32 v60,2013-10-14 02:00:00,
2013-10-13 21:30:00,41.0,38.3,30.44,ENE,68,0.0,0.0,90,0.00,,,-99.99,Weather View 32 v60,2013-10-14 02:30:00,
2013-10-13 22:00:00,40.0,37.9,30.45,NE,45,0.0,0.0,92,0.00,,,-99.99,Weather View 32 v60,2013-10-14 03:00:00,
2013-10-13 22:30:00,40.0,38.1,30.46,NW,315,0.0,0.0,93,0.00,,,-99.99,Weather View 32 v60,2013-10-14 03:30:00,
2013-10-13 23:00:00,39.0,37.4,30.47,NNE,22,0.0,0.0,94,0.00,,,-99.99,Weather View 32 v60,2013-10-14 04:00:00,
2013-10-13 23:30:00,38.0,36.7,30.47,North,0,0.0,0.0,95,0.00,,,-99.99,Weather View 32 v60,2013-10-14 04:30:00,